Search for airport 
image banner adimage banner adimage banner ad
image banner ad

PN46 - River Hill Aviation

Located in Apollo, United States

ICAO - PN46, IATA -

Data provided by Airmate  

General information

Coordinates: N40°33'52" W79°32'45"
Elevation is 1250 feet MSL.
Magnetic variation is -09° East
View others Airports in Pennsylvania

Operational data

Special qualification required
Current time UTC:
Current local time:
Weather at : KLBE - Arnold Palmer Rgnl ( 34 km )
METAR: KLBE 091150Z 00000KT 10SM SCT036 SCT045 BKN050 06/04 A3005
TAF: KLBE 091120Z 0912/1012 00000KT P6SM -RA OVC040 FM091500 10003KT 4SM -RA OVC030 FM091700 09006KT 3SM RA OVC009 FM092100 16005KT 4SM SHRA BKN012 FM100200 01004KT 5SM -SHRA BR OVC005 FM100700 32004KT P6SM BKN010
View NOTAMs / SUP AIP / TFR affecting this airport [VIEW]
Communications frequencies: [VIEW]

Runways:

RWY identifierQFULength (ft)Width (ft)SurfaceLDA (ft)
091700100GRASS
271700100GRASS

Airport contact information

Address: Apollo United States

Satellite view of PN46